createdAt,value
2017-05-10T00:01:02.882Z,4.58
2017-05-10T00:03:30.269Z,5.23
2017-05-10T00:05:57.586Z,5.32
2017-05-10T00:08:24.753Z,6.07
2017-05-10T00:10:52.740Z,5.38
2017-05-10T00:13:19.909Z,5.52
2017-05-10T00:15:47.889Z,6.43
2017-05-10T00:18:15.073Z,5.70
2017-05-10T00:20:42.246Z,5.15
2017-05-10T00:23:09.417Z,6.53
2017-05-10T00:25:36.697Z,5.87
2017-05-10T00:28:03.855Z,6.38
2017-05-10T00:30:31.841Z,5.97
2017-05-10T00:32:59.163Z,6.00
2017-05-10T00:35:26.312Z,7.33
2017-05-10T00:37:53.462Z,5.52
2017-05-10T00:40:20.625Z,5.97
2017-05-10T00:42:47.774Z,6.42
2017-05-10T00:45:14.924Z,5.65
2017-05-10T00:47:42.847Z,5.20
2017-05-10T00:50:10.045Z,5.90
2017-05-10T00:52:37.217Z,5.35
2017-05-10T00:55:04.429Z,6.83
2017-05-10T00:57:32.358Z,5.73
2017-05-10T00:59:59.584Z,5.38
2017-05-10T01:02:26.770Z,6.48
2017-05-10T01:04:53.950Z,5.97
2017-05-10T01:07:21.929Z,5.50
2017-05-10T01:09:49.864Z,4.95
2017-05-10T01:12:17.185Z,6.32
2017-05-10T01:14:45.078Z,5.52
2017-05-10T01:17:12.517Z,5.78
2017-05-10T01:19:39.756Z,5.08
2017-05-10T01:22:07.641Z,5.52
2017-05-10T01:24:34.811Z,5.37
2017-05-10T01:27:01.970Z,6.28
2017-05-10T01:29:29.172Z,5.95
2017-05-10T01:31:57.006Z,5.15
2017-05-10T01:34:25.364Z,5.77
2017-05-10T01:36:52.534Z,6.08
2017-05-10T01:39:19.716Z,5.40
2017-05-10T01:41:46.896Z,6.13
2017-05-10T01:44:14.171Z,5.18
2017-05-10T01:46:41.691Z,5.52
2017-05-10T01:49:09.133Z,5.67
2017-05-10T01:51:36.582Z,5.63
2017-05-10T01:54:04.013Z,5.58
2017-05-10T01:56:31.829Z,6.35
2017-05-10T01:58:59.214Z,5.08
2017-05-10T02:01:27.348Z,5.68
2017-05-10T02:03:54.820Z,4.87
2017-05-10T02:06:22.225Z,4.90
2017-05-10T02:08:49.686Z,5.03
2017-05-10T02:11:17.117Z,5.62
2017-05-10T02:13:45.256Z,5.22
2017-05-10T02:16:13.271Z,6.87
2017-05-10T02:18:40.474Z,5.28
2017-05-10T02:21:07.693Z,6.38
2017-05-10T02:23:34.867Z,4.75
2017-05-10T02:26:02.196Z,5.30
2017-05-10T02:28:30.431Z,5.80
2017-05-10T02:30:57.882Z,5.12
2017-05-10T02:33:25.309Z,6.17
2017-05-10T02:38:26.426Z,5.75
2017-05-10T02:40:53.643Z,5.70
2017-05-10T02:43:20.837Z,5.12
2017-05-10T02:45:48.062Z,6.02
2017-05-10T02:48:15.275Z,6.33
2017-05-10T02:50:42.481Z,5.80
2017-05-10T02:53:09.749Z,5.35
2017-05-10T02:55:37.670Z,5.72
2017-05-10T02:58:04.873Z,5.42
2017-05-10T03:00:32.789Z,5.77
2017-05-10T03:02:59.997Z,6.25
2017-05-10T03:05:27.167Z,5.13
2017-05-10T03:07:55.572Z,6.25
2017-05-10T03:10:22.770Z,5.45
2017-05-10T03:12:49.963Z,5.08
2017-05-10T03:15:17.303Z,6.07
2017-05-10T03:17:44.670Z,5.80
2017-05-10T03:20:11.856Z,5.08
2017-05-10T03:22:39.308Z,6.55
2017-05-10T03:25:06.757Z,5.07
2017-05-10T03:27:34.209Z,5.03
2017-05-10T03:30:01.652Z,5.47
2017-05-10T03:32:29.487Z,5.65
2017-05-10T03:34:56.871Z,5.42
2017-05-10T03:37:24.297Z,4.95
2017-05-10T03:39:51.725Z,5.43
2017-05-10T03:42:20.336Z,5.50
2017-05-10T03:44:47.860Z,5.93
2017-05-10T03:47:15.998Z,5.07
2017-05-10T03:49:43.452Z,5.18
2017-05-10T03:52:10.774Z,5.58
2017-05-10T03:54:38.825Z,5.42
2017-05-10T03:57:06.265Z,5.85
2017-05-10T03:59:33.670Z,5.70
2017-05-10T04:02:01.593Z,5.75
2017-05-10T04:04:29.002Z,5.22
2017-05-10T04:06:56.433Z,5.65
2017-05-10T04:09:23.856Z,5.57
2017-05-10T04:11:51.187Z,6.22
2017-05-10T04:14:18.593Z,6.13
2017-05-10T04:16:45.993Z,5.90
2017-05-10T04:19:13.401Z,6.87
2017-05-10T04:21:40.840Z,6.20
2017-05-10T04:24:08.364Z,6.27
2017-05-10T04:26:35.787Z,6.43
2017-05-10T04:29:03.254Z,5.88
2017-05-10T04:31:30.680Z,6.33
2017-05-10T04:33:58.098Z,5.82
2017-05-10T04:36:26.613Z,6.53
2017-05-10T04:38:54.038Z,7.05
2017-05-10T04:41:21.493Z,7.60
2017-05-10T04:43:48.795Z,7.20
2017-05-10T04:46:16.144Z,7.10
2017-05-10T04:48:43.628Z,6.33
2017-05-10T04:51:11.067Z,7.22
2017-05-10T04:53:38.461Z,7.45
2017-05-10T04:56:05.827Z,7.57
2017-05-10T04:58:33.281Z,7.77
2017-05-10T05:01:00.736Z,8.02
2017-05-10T05:03:28.160Z,7.52
2017-05-10T05:05:55.573Z,7.27
2017-05-10T05:08:24.440Z,7.28
2017-05-10T05:10:51.846Z,7.90
2017-05-10T05:13:20.304Z,7.42
2017-05-10T05:15:47.923Z,7.87
2017-05-10T05:18:15.404Z,8.20
2017-05-10T05:20:42.801Z,8.88
2017-05-10T05:23:10.222Z,8.38
2017-05-10T05:25:38.421Z,8.57
2017-05-10T05:28:06.609Z,8.97
2017-05-10T05:30:33.796Z,9.55
2017-05-10T05:33:01.083Z,7.93
2017-05-10T05:35:28.370Z,9.03
2017-05-10T05:37:55.793Z,7.97
2017-05-10T05:40:23.117Z,8.95
2017-05-10T05:42:50.456Z,8.78
2017-05-10T05:45:18.199Z,8.92
2017-05-10T05:47:45.585Z,9.07
2017-05-10T05:50:12.993Z,10.68
2017-05-10T05:52:41.146Z,9.55
2017-05-10T05:55:08.529Z,10.17
2017-05-10T05:57:35.930Z,10.38
2017-05-10T06:00:03.480Z,9.82
2017-05-10T06:02:30.876Z,8.65
2017-05-10T06:04:58.274Z,9.50
2017-05-10T06:07:26.505Z,10.28
2017-05-10T06:09:54.855Z,9.18
2017-05-10T06:12:22.413Z,10.58
2017-05-10T06:14:50.424Z,8.92
2017-05-10T06:17:18.048Z,10.42
2017-05-10T06:19:45.243Z,10.10
2017-05-10T06:22:12.638Z,11.88
2017-05-10T06:24:40.135Z,9.95
2017-05-10T06:27:07.548Z,9.87
2017-05-10T06:29:35.148Z,10.00
2017-05-10T06:32:02.572Z,10.40
2017-05-10T06:34:30.007Z,9.98
2017-05-10T06:36:57.439Z,10.95
2017-05-10T06:39:25.624Z,9.60
2017-05-10T06:41:53.074Z,10.53
2017-05-10T06:44:20.664Z,9.32
2017-05-10T06:46:47.992Z,9.68
2017-05-10T06:49:15.428Z,9.05
2017-05-10T06:51:42.824Z,10.28
2017-05-10T06:54:10.221Z,10.37
2017-05-10T06:56:37.617Z,9.55
2017-05-10T06:59:05.775Z,8.80
2017-05-10T07:01:33.149Z,9.52
2017-05-10T07:04:01.273Z,10.73
2017-05-10T07:06:28.787Z,10.43
2017-05-10T07:08:56.204Z,10.82
2017-05-10T07:11:23.612Z,9.33
2017-05-10T07:13:51.175Z,10.08
2017-05-10T07:16:18.668Z,9.07
2017-05-10T07:18:46.065Z,9.73
2017-05-10T07:21:13.562Z,9.87
2017-05-10T07:23:40.983Z,9.07
2017-05-10T07:26:08.433Z,9.60
2017-05-10T07:28:35.847Z,9.00
2017-05-10T07:31:03.245Z,10.28
2017-05-10T07:33:30.673Z,11.70
2017-05-10T07:35:58.078Z,10.48
2017-05-10T07:38:25.400Z,10.20
2017-05-10T07:40:52.928Z,11.23
2017-05-10T07:43:20.381Z,10.37
2017-05-10T07:45:47.816Z,11.03
2017-05-10T07:48:15.220Z,11.55
2017-05-10T07:50:42.654Z,11.15
2017-05-10T07:53:10.820Z,10.17
2017-05-10T07:55:38.248Z,10.30
2017-05-10T07:58:05.667Z,11.00
2017-05-10T08:00:33.070Z,10.93
2017-05-10T08:03:00.374Z,10.42
2017-05-10T08:05:27.816Z,10.47
2017-05-10T08:07:55.258Z,9.72
2017-05-10T08:10:22.662Z,8.95
2017-05-10T08:12:50.123Z,9.57
2017-05-10T08:15:17.612Z,10.56
2017-05-10T08:17:45.225Z,8.96
2017-05-10T08:20:12.664Z,8.80
2017-05-10T08:22:40.143Z,9.66
2017-05-10T08:25:07.477Z,8.70
2017-05-10T08:27:35.619Z,8.06
2017-05-10T08:30:03.064Z,8.08
2017-05-10T08:32:30.454Z,8.56
2017-05-10T08:34:57.798Z,8.88
2017-05-10T08:37:25.925Z,9.60
2017-05-10T08:39:53.356Z,8.76
2017-05-10T08:42:21.505Z,9.10
2017-05-10T08:44:48.917Z,9.26
2017-05-10T08:47:16.325Z,11.08
2017-05-10T08:49:44.386Z,9.72
2017-05-10T08:52:11.829Z,10.10
2017-05-10T08:54:39.268Z,11.20
2017-05-10T08:57:06.677Z,10.56
2017-05-10T08:59:34.811Z,11.84
2017-05-10T09:02:02.205Z,10.38
2017-05-10T09:04:29.509Z,12.50
2017-05-10T09:06:56.849Z,11.14
2017-05-10T09:09:24.259Z,10.52
2017-05-10T09:11:51.658Z,10.34
2017-05-10T09:14:19.060Z,11.06
2017-05-10T09:16:46.467Z,10.12
2017-05-10T09:19:13.866Z,10.30
2017-05-10T09:21:42.020Z,10.55
2017-05-10T09:24:09.481Z,10.54
2017-05-10T09:26:37.584Z,10.92
2017-05-10T09:29:05.014Z,11.30
2017-05-10T09:31:32.492Z,10.08
2017-05-10T09:33:59.908Z,10.88
2017-05-10T09:36:27.339Z,10.64
2017-05-10T09:38:54.782Z,12.07
2017-05-10T09:41:22.188Z,11.42
2017-05-10T09:43:49.480Z,10.14
2017-05-10T09:46:16.892Z,10.76
2017-05-10T09:48:44.317Z,12.14
2017-05-10T09:51:11.646Z,10.52
2017-05-10T09:53:39.212Z,11.25
2017-05-10T09:56:06.621Z,11.42
2017-05-10T09:58:34.004Z,12.68
2017-05-10T10:01:01.536Z,11.74
2017-05-10T10:03:28.949Z,11.58
2017-05-10T10:05:56.320Z,12.78
2017-05-10T10:08:23.777Z,12.28
2017-05-10T10:10:51.369Z,11.78
2017-05-10T10:13:18.708Z,11.14
2017-05-10T10:15:46.159Z,12.06
2017-05-10T10:18:14.325Z,12.20
2017-05-10T10:20:41.754Z,11.52
2017-05-10T10:23:09.065Z,11.50
2017-05-10T10:25:37.225Z,12.56
2017-05-10T10:28:04.640Z,12.12
2017-05-10T10:30:32.039Z,11.18
2017-05-10T10:33:00.338Z,11.70
2017-05-10T10:35:27.773Z,11.88
2017-05-10T10:37:55.817Z,11.86
2017-05-10T10:40:23.172Z,11.66
2017-05-10T10:42:50.542Z,11.42
2017-05-10T10:45:18.001Z,10.90
2017-05-10T10:47:45.436Z,11.76
2017-05-10T10:50:13.640Z,11.52
2017-05-10T10:52:41.770Z,11.88
2017-05-10T10:55:09.228Z,11.54
2017-05-10T10:57:36.650Z,12.02
2017-05-10T11:00:04.064Z,11.58
2017-05-10T11:02:32.253Z,12.16
2017-05-10T11:05:00.408Z,10.84
2017-05-10T11:07:27.730Z,11.46
2017-05-10T11:09:55.129Z,11.90
2017-05-10T11:12:23.300Z,13.02
2017-05-10T11:14:50.744Z,12.28
2017-05-10T11:17:18.101Z,12.68
2017-05-10T11:19:45.372Z,12.10
2017-05-10T11:22:12.770Z,12.10
2017-05-10T11:24:40.225Z,11.94
2017-05-10T11:27:07.677Z,11.34
2017-05-10T11:29:35.097Z,11.28
2017-05-10T11:32:02.535Z,11.46
2017-05-10T11:34:29.954Z,10.98
2017-05-10T11:36:58.141Z,11.04
2017-05-10T11:39:25.481Z,10.48
2017-05-10T11:41:52.880Z,10.38
2017-05-10T11:44:21.016Z,10.40
2017-05-10T11:46:48.434Z,11.00
2017-05-10T11:49:15.861Z,12.46
2017-05-10T11:51:43.980Z,11.48
2017-05-10T11:54:12.637Z,10.68
2017-05-10T11:56:40.083Z,10.30
2017-05-10T11:59:07.385Z,11.04
2017-05-10T12:01:34.730Z,10.52
2017-05-10T12:04:02.175Z,10.64
2017-05-10T12:06:29.794Z,10.40
2017-05-10T12:08:57.236Z,10.28
2017-05-10T12:11:24.476Z,10.66
2017-05-10T12:13:51.749Z,9.40
2017-05-10T12:16:18.961Z,9.68
2017-05-10T12:18:46.333Z,10.30
2017-05-10T12:21:14.579Z,10.68
2017-05-10T12:23:41.815Z,10.82
2017-05-10T12:26:08.980Z,11.00
2017-05-10T12:28:36.168Z,10.90
2017-05-10T12:31:03.450Z,11.46
2017-05-10T12:33:30.853Z,9.84
2017-05-10T12:35:58.293Z,10.32
2017-05-10T12:38:25.801Z,10.38
2017-05-10T12:40:53.147Z,10.72
2017-05-10T12:43:20.672Z,10.96
2017-05-10T12:45:48.154Z,10.98
2017-05-10T12:48:15.508Z,10.22
2017-05-10T12:50:45.944Z,10.30
2017-05-10T12:53:13.243Z,11.38
2017-05-10T12:55:40.482Z,10.96
2017-05-10T12:58:07.727Z,10.42
2017-05-10T13:00:34.914Z,11.20
2017-05-10T13:03:07.675Z,11.22
2017-05-10T13:05:34.867Z,11.24
2017-05-10T13:08:02.056Z,10.24
2017-05-10T13:10:29.225Z,11.22
2017-05-10T13:12:56.394Z,10.76
2017-05-10T13:15:26.666Z,10.84
2017-05-10T13:17:56.445Z,11.42
2017-05-10T13:20:23.665Z,10.38
2017-05-10T13:22:50.960Z,10.58
2017-05-10T13:25:18.145Z,11.06
2017-05-10T13:27:46.256Z,10.72
2017-05-10T13:30:13.436Z,10.14
2017-05-10T13:32:40.612Z,10.98
2017-05-10T13:35:07.790Z,11.02
2017-05-10T13:37:35.131Z,10.52
2017-05-10T13:40:02.320Z,11.62
2017-05-10T13:42:29.509Z,11.66
2017-05-10T13:44:56.689Z,10.84
2017-05-10T13:47:23.869Z,10.44
2017-05-10T13:49:51.120Z,10.64
2017-05-10T13:52:18.535Z,11.36
2017-05-10T13:54:46.034Z,11.94
2017-05-10T13:57:13.367Z,10.38
2017-05-10T13:59:40.720Z,10.88
2017-05-10T14:02:08.155Z,11.18
2017-05-10T14:04:35.613Z,11.12
2017-05-10T14:07:03.040Z,10.06
2017-05-10T14:09:31.217Z,12.38
2017-05-10T14:11:58.632Z,10.70
2017-05-10T14:14:26.254Z,10.80
2017-05-10T14:16:53.677Z,10.04
2017-05-10T14:19:21.168Z,10.62
2017-05-10T14:21:48.557Z,10.88
2017-05-10T14:24:16.077Z,11.16
2017-05-10T14:26:43.517Z,11.18
2017-05-10T14:29:11.259Z,11.00
2017-05-10T14:31:38.716Z,11.00
2017-05-10T14:34:06.901Z,10.78
2017-05-10T14:36:35.071Z,11.00
2017-05-10T14:39:03.359Z,10.30
2017-05-10T14:41:30.776Z,11.24
2017-05-10T14:43:58.209Z,10.46
2017-05-10T14:46:25.519Z,10.38
2017-05-10T14:48:52.941Z,11.08
2017-05-10T14:51:20.372Z,10.42
2017-05-10T14:53:47.829Z,11.64
2017-05-10T14:56:15.353Z,11.82
2017-05-10T14:58:42.886Z,11.12
2017-05-10T15:01:10.416Z,11.28
2017-05-10T15:03:38.004Z,11.22
2017-05-10T15:06:05.463Z,11.60
2017-05-10T15:08:33.000Z,10.66
2017-05-10T15:11:00.427Z,12.96
2017-05-10T15:13:28.601Z,11.70
2017-05-10T15:15:56.862Z,11.30
2017-05-10T15:18:24.405Z,11.02
2017-05-10T15:20:52.155Z,11.68
2017-05-10T15:23:20.669Z,12.96
2017-05-10T15:25:47.977Z,11.04
2017-05-10T15:28:15.303Z,11.68
2017-05-10T15:30:42.504Z,9.94
2017-05-10T15:33:09.905Z,11.94
2017-05-10T15:35:39.612Z,12.08
2017-05-10T15:38:06.841Z,11.48
2017-05-10T15:40:34.075Z,12.58
2017-05-10T15:43:02.057Z,11.30
2017-05-10T15:45:29.318Z,10.54
2017-05-10T15:47:56.557Z,11.16
2017-05-10T15:50:23.931Z,9.96
2017-05-10T15:52:51.249Z,9.92
2017-05-10T15:55:18.703Z,10.82
2017-05-10T15:57:46.891Z,11.20
2017-05-10T16:00:14.102Z,10.64
2017-05-10T16:02:41.340Z,11.06
2017-05-10T16:05:08.572Z,10.96
2017-05-10T16:07:35.993Z,11.12
2017-05-10T16:10:03.192Z,11.58
2017-05-10T16:12:30.623Z,12.72
2017-05-10T16:14:57.914Z,12.32
2017-05-10T16:17:25.378Z,13.16
2017-05-10T16:19:52.854Z,12.68
2017-05-10T16:22:20.257Z,12.00
2017-05-10T16:24:47.804Z,12.58
2017-05-10T16:27:15.244Z,11.26
2017-05-10T16:29:42.700Z,11.82
2017-05-10T16:32:10.145Z,12.80
2017-05-10T16:34:37.515Z,11.90
2017-05-10T16:37:04.964Z,13.08
2017-05-10T16:39:32.310Z,13.54
2017-05-10T16:41:59.728Z,13.98
2017-05-10T16:44:27.180Z,11.42
2017-05-10T16:46:54.679Z,12.34
2017-05-10T16:49:22.137Z,12.66
2017-05-10T16:51:49.478Z,12.18
2017-05-10T16:54:16.844Z,12.38
2017-05-10T16:56:44.178Z,12.70
2017-05-10T16:59:11.668Z,12.88
2017-05-10T17:01:39.178Z,12.70
2017-05-10T17:04:07.404Z,13.72
2017-05-10T17:06:34.842Z,12.48
2017-05-10T17:09:11.041Z,12.88
2017-05-10T17:11:38.293Z,13.58
2017-05-10T17:14:06.320Z,13.96
2017-05-10T17:16:33.713Z,13.30
2017-05-10T17:19:06.379Z,12.04
2017-05-10T17:21:33.889Z,12.56
2017-05-10T17:24:02.134Z,13.06
2017-05-10T17:26:30.450Z,12.38
2017-05-10T17:28:57.985Z,12.76
2017-05-10T17:31:26.257Z,12.32
2017-05-10T17:33:55.125Z,12.14
2017-05-10T17:36:22.736Z,13.14
2017-05-10T17:38:50.277Z,13.26
2017-05-10T17:41:17.795Z,13.82
2017-05-10T17:43:45.306Z,11.26
2017-05-10T17:46:12.835Z,12.30
2017-05-10T17:48:40.365Z,13.44
2017-05-10T17:51:07.893Z,13.44
2017-05-10T17:53:35.485Z,13.26
2017-05-10T17:56:03.001Z,13.18
2017-05-10T17:58:30.683Z,14.88
2017-05-10T18:00:58.201Z,14.70
2017-05-10T18:03:25.780Z,14.38
2017-05-10T18:05:53.351Z,13.44
2017-05-10T18:08:20.908Z,14.52
2017-05-10T18:10:48.432Z,13.80
2017-05-10T18:13:15.949Z,13.00
2017-05-10T18:15:43.485Z,14.38
2017-05-10T18:18:11.024Z,13.22
2017-05-10T18:20:38.587Z,13.52
2017-05-10T18:23:06.097Z,14.08
2017-05-10T18:25:34.372Z,13.54
2017-05-10T18:28:03.242Z,12.80
2017-05-10T18:30:30.729Z,15.20
2017-05-10T18:32:58.249Z,12.76
2017-05-10T18:35:25.847Z,13.00
2017-05-10T18:37:53.408Z,14.34
2017-05-10T18:40:21.261Z,13.12
2017-05-10T18:42:48.931Z,12.72
2017-05-10T18:45:16.453Z,13.18
2017-05-10T18:47:43.984Z,14.00
2017-05-10T18:50:11.553Z,12.92
2017-05-10T18:52:39.155Z,13.60
2017-05-10T18:55:06.714Z,12.48
2017-05-10T18:57:34.993Z,13.44
2017-05-10T19:00:02.551Z,12.82
2017-05-10T19:02:30.189Z,13.00
2017-05-10T19:04:58.457Z,14.10
2017-05-10T19:07:26.171Z,12.84
2017-05-10T19:09:53.703Z,13.38
2017-05-10T19:12:21.954Z,13.40
2017-05-10T19:14:49.213Z,13.18
2017-05-10T19:17:16.430Z,12.90
2017-05-10T19:19:44.387Z,13.67
2017-05-10T19:22:12.373Z,12.72
2017-05-10T19:24:40.317Z,13.06
2017-05-10T19:27:08.326Z,13.27
2017-05-10T19:29:35.518Z,13.36
2017-05-10T19:32:02.712Z,13.87
2017-05-10T19:34:29.985Z,13.30
2017-05-10T19:36:57.302Z,14.02
2017-05-10T19:39:24.903Z,14.60
2017-05-10T19:41:52.226Z,13.87
2017-05-10T19:44:19.430Z,13.37
2017-05-10T19:46:46.600Z,13.15
2017-05-10T19:49:14.698Z,13.38
2017-05-10T19:51:41.965Z,12.83
2017-05-10T19:54:09.181Z,14.00
2017-05-10T19:56:37.147Z,13.50
2017-05-10T19:59:05.536Z,13.57
2017-05-10T20:01:33.530Z,12.22
2017-05-10T20:04:00.729Z,11.93
2017-05-10T20:06:27.939Z,13.73
2017-05-10T20:08:55.175Z,12.92
2017-05-10T20:11:22.631Z,14.17
2017-05-10T20:13:49.850Z,12.83
2017-05-10T20:16:17.786Z,13.72
2017-05-10T20:18:45.000Z,12.22
2017-05-10T20:21:12.212Z,13.73
2017-05-10T20:23:39.438Z,11.98
2017-05-10T20:26:06.656Z,13.53
2017-05-10T20:28:33.892Z,12.45
2017-05-10T20:31:01.161Z,12.78
2017-05-10T20:33:28.670Z,12.30
2017-05-10T20:35:55.901Z,14.00
2017-05-10T20:38:23.101Z,13.27
2017-05-10T20:40:51.029Z,13.07
2017-05-10T20:43:18.237Z,13.28
2017-05-10T20:45:45.876Z,13.22
2017-05-10T20:48:13.248Z,14.12
2017-05-10T20:50:40.483Z,12.38
2017-05-10T20:53:08.520Z,13.68
2017-05-10T20:55:35.764Z,12.13
2017-05-10T20:58:02.970Z,13.50
2017-05-10T21:00:30.348Z,13.15
2017-05-10T21:02:57.757Z,13.05
2017-05-10T21:05:24.956Z,13.47
2017-05-10T21:07:52.467Z,14.20
2017-05-10T21:10:19.911Z,14.00
2017-05-10T21:12:47.348Z,13.68
2017-05-10T21:15:14.836Z,13.73
2017-05-10T21:17:42.915Z,13.72
2017-05-10T21:20:10.555Z,14.40
2017-05-10T21:22:37.794Z,13.67
2017-05-10T21:25:05.013Z,14.08
2017-05-10T21:27:32.980Z,13.82
2017-05-10T21:30:00.222Z,14.22
2017-05-10T21:32:27.576Z,14.18
2017-05-10T21:34:55.108Z,14.47
2017-05-10T21:37:23.226Z,13.68
2017-05-10T21:39:51.419Z,14.08
2017-05-10T21:42:18.810Z,13.65
2017-05-10T21:44:46.064Z,13.57
2017-05-10T21:47:13.266Z,14.68
2017-05-10T21:49:40.716Z,14.12
2017-05-10T21:52:08.548Z,14.57
2017-05-10T21:54:36.537Z,13.80
2017-05-10T21:57:03.725Z,13.72
2017-05-10T21:59:30.943Z,14.40
2017-05-10T22:01:58.161Z,14.05
2017-05-10T22:04:26.095Z,12.15
2017-05-10T22:06:53.900Z,12.73
2017-05-10T22:09:21.128Z,12.65
2017-05-10T22:11:48.366Z,12.82
2017-05-10T22:14:16.393Z,13.02
2017-05-10T22:16:44.369Z,13.63
2017-05-10T22:19:12.325Z,12.58
2017-05-10T22:21:40.284Z,12.35
2017-05-10T22:24:07.481Z,12.28
2017-05-10T22:26:34.713Z,12.22
2017-05-10T22:29:02.053Z,12.65
2017-05-10T22:31:29.300Z,12.97
2017-05-10T22:33:56.564Z,12.48
2017-05-10T22:36:23.798Z,13.17
2017-05-10T22:38:51.040Z,13.78
2017-05-10T22:41:18.266Z,12.23
2017-05-10T22:43:45.472Z,12.93
2017-05-10T22:46:12.690Z,12.45
2017-05-10T22:48:39.917Z,12.55
2017-05-10T22:51:07.172Z,13.55
2017-05-10T22:53:34.385Z,12.75
2017-05-10T22:56:01.621Z,13.17
2017-05-10T22:58:28.881Z,12.58
2017-05-10T23:00:56.158Z,13.22
2017-05-10T23:03:23.433Z,12.35
2017-05-10T23:05:51.409Z,13.03
2017-05-10T23:08:18.726Z,12.10
2017-05-10T23:10:45.962Z,12.70
2017-05-10T23:13:13.189Z,12.27
2017-05-10T23:15:40.399Z,12.87
2017-05-10T23:18:07.597Z,12.18
2017-05-10T23:20:35.507Z,12.82
2017-05-10T23:23:02.702Z,14.33
2017-05-10T23:25:29.890Z,12.30
2017-05-10T23:27:57.072Z,13.57
2017-05-10T23:30:24.273Z,12.37
2017-05-10T23:32:51.520Z,13.12
2017-05-10T23:35:18.855Z,12.58
2017-05-10T23:37:46.042Z,13.00
2017-05-10T23:40:13.472Z,12.07
2017-05-10T23:42:41.645Z,12.75
2017-05-10T23:45:08.808Z,14.42
2017-05-10T23:47:36.206Z,13.03
2017-05-10T23:50:03.517Z,13.25
2017-05-10T23:52:30.939Z,13.43
2017-05-10T23:54:58.259Z,13.33
2017-05-10T23:57:25.726Z,13.40
2017-05-10T23:59:53.934Z,13.50
